sensor_id;sensor_type;location;lat;lon;timestamp;P1;durP1;ratioP1;P2;durP2;ratioP2
43710;SDS011;29309;42.682;23.372;2023-04-26T00:01:18;9.88;;;6.43;;
43710;SDS011;29309;42.682;23.372;2023-04-26T00:03:43;10.55;;;6.70;;
43710;SDS011;29309;42.682;23.372;2023-04-26T00:06:08;9.30;;;6.57;;
43710;SDS011;29309;42.682;23.372;2023-04-26T00:08:34;10.82;;;6.97;;
43710;SDS011;29309;42.682;23.372;2023-04-26T00:11:00;10.43;;;7.30;;
43710;SDS011;29309;42.682;23.372;2023-04-26T00:13:26;11.90;;;7.55;;
43710;SDS011;29309;42.682;23.372;2023-04-26T00:15:51;11.75;;;7.82;;
43710;SDS011;29309;42.682;23.372;2023-04-26T00:18:17;10.00;;;6.53;;
43710;SDS011;29309;42.682;23.372;2023-04-26T00:20:42;16.27;;;7.50;;
43710;SDS011;29309;42.682;23.372;2023-04-26T00:23:08;16.15;;;8.98;;
43710;SDS011;29309;42.682;23.372;2023-04-26T00:25:35;14.75;;;8.75;;
43710;SDS011;29309;42.682;23.372;2023-04-26T00:28:00;14.63;;;10.10;;
43710;SDS011;29309;42.682;23.372;2023-04-26T00:30:26;13.50;;;8.45;;
43710;SDS011;29309;42.682;23.372;2023-04-26T00:32:52;13.07;;;8.10;;
43710;SDS011;29309;42.682;23.372;2023-04-26T00:35:17;13.50;;;9.70;;
43710;SDS011;29309;42.682;23.372;2023-04-26T00:37:43;13.77;;;8.13;;
43710;SDS011;29309;42.682;23.372;2023-04-26T00:40:09;10.98;;;7.25;;
43710;SDS011;29309;42.682;23.372;2023-04-26T00:42:35;13.00;;;7.47;;
43710;SDS011;29309;42.682;23.372;2023-04-26T00:45:00;11.98;;;8.00;;
43710;SDS011;29309;42.682;23.372;2023-04-26T00:47:26;12.38;;;8.27;;
43710;SDS011;29309;42.682;23.372;2023-04-26T00:49:53;14.25;;;10.02;;
43710;SDS011;29309;42.682;23.372;2023-04-26T00:52:20;14.20;;;9.20;;
43710;SDS011;29309;42.682;23.372;2023-04-26T00:54:47;12.48;;;9.05;;
43710;SDS011;29309;42.682;23.372;2023-04-26T00:57:13;13.63;;;9.02;;
43710;SDS011;29309;42.682;23.372;2023-04-26T00:59:39;16.80;;;9.93;;
43710;SDS011;29309;42.682;23.372;2023-04-26T01:02:05;13.95;;;9.27;;
43710;SDS011;29309;42.682;23.372;2023-04-26T01:04:31;13.63;;;9.18;;
43710;SDS011;29309;42.682;23.372;2023-04-26T01:06:57;13.45;;;9.00;;
43710;SDS011;29309;42.682;23.372;2023-04-26T01:09:24;13.48;;;9.93;;
43710;SDS011;29309;42.682;23.372;2023-04-26T01:11:50;13.60;;;9.07;;
43710;SDS011;29309;42.682;23.372;2023-04-26T01:14:16;14.68;;;9.57;;
43710;SDS011;29309;42.682;23.372;2023-04-26T01:16:42;15.02;;;9.60;;
43710;SDS011;29309;42.682;23.372;2023-04-26T01:19:10;16.08;;;9.40;;
43710;SDS011;29309;42.682;23.372;2023-04-26T01:21:37;19.13;;;10.40;;
43710;SDS011;29309;42.682;23.372;2023-04-26T01:24:03;16.00;;;10.43;;
43710;SDS011;29309;42.682;23.372;2023-04-26T01:26:30;15.40;;;10.13;;
43710;SDS011;29309;42.682;23.372;2023-04-26T01:28:56;14.95;;;10.20;;
43710;SDS011;29309;42.682;23.372;2023-04-26T01:31:22;17.38;;;10.30;;
43710;SDS011;29309;42.682;23.372;2023-04-26T01:33:48;20.92;;;10.68;;
43710;SDS011;29309;42.682;23.372;2023-04-26T01:36:13;14.65;;;9.63;;
43710;SDS011;29309;42.682;23.372;2023-04-26T01:38:39;18.02;;;10.80;;
43710;SDS011;29309;42.682;23.372;2023-04-26T01:41:04;18.10;;;10.85;;
43710;SDS011;29309;42.682;23.372;2023-04-26T01:43:30;17.25;;;11.60;;
43710;SDS011;29309;42.682;23.372;2023-04-26T01:45:55;18.27;;;10.75;;
43710;SDS011;29309;42.682;23.372;2023-04-26T01:48:21;20.05;;;12.13;;
43710;SDS011;29309;42.682;23.372;2023-04-26T01:50:46;18.85;;;11.07;;
43710;SDS011;29309;42.682;23.372;2023-04-26T01:53:12;18.30;;;11.57;;
43710;SDS011;29309;42.682;23.372;2023-04-26T01:55:37;20.15;;;10.65;;
43710;SDS011;29309;42.682;23.372;2023-04-26T01:58:02;18.70;;;11.40;;
43710;SDS011;29309;42.682;23.372;2023-04-26T02:00:28;16.73;;;10.63;;
43710;SDS011;29309;42.682;23.372;2023-04-26T02:02:54;20.25;;;12.15;;
43710;SDS011;29309;42.682;23.372;2023-04-26T02:05:20;19.13;;;11.43;;
43710;SDS011;29309;42.682;23.372;2023-04-26T02:07:46;22.38;;;12.52;;
43710;SDS011;29309;42.682;23.372;2023-04-26T02:10:11;21.15;;;12.57;;
43710;SDS011;29309;42.682;23.372;2023-04-26T02:12:37;20.17;;;12.95;;
43710;SDS011;29309;42.682;23.372;2023-04-26T02:15:02;17.30;;;11.95;;
43710;SDS011;29309;42.682;23.372;2023-04-26T02:17:28;20.95;;;12.18;;
43710;SDS011;29309;42.682;23.372;2023-04-26T02:19:54;17.25;;;11.95;;
43710;SDS011;29309;42.682;23.372;2023-04-26T02:22:21;17.20;;;11.02;;
43710;SDS011;29309;42.682;23.372;2023-04-26T02:24:49;22.17;;;10.65;;
43710;SDS011;29309;42.682;23.372;2023-04-26T02:27:16;18.55;;;11.43;;
43710;SDS011;29309;42.682;23.372;2023-04-26T02:29:42;18.67;;;11.40;;
43710;SDS011;29309;42.682;23.372;2023-04-26T02:32:07;19.20;;;10.68;;
43710;SDS011;29309;42.682;23.372;2023-04-26T02:34:33;19.02;;;11.25;;
43710;SDS011;29309;42.682;23.372;2023-04-26T02:36:58;18.42;;;11.25;;
43710;SDS011;29309;42.682;23.372;2023-04-26T02:39:23;20.88;;;10.32;;
43710;SDS011;29309;42.682;23.372;2023-04-26T02:41:50;20.75;;;11.45;;
43710;SDS011;29309;42.682;23.372;2023-04-26T02:44:15;22.17;;;11.23;;
43710;SDS011;29309;42.682;23.372;2023-04-26T02:46:41;21.33;;;11.60;;
43710;SDS011;29309;42.682;23.372;2023-04-26T02:49:06;16.75;;;10.63;;
43710;SDS011;29309;42.682;23.372;2023-04-26T02:51:32;18.40;;;11.27;;
43710;SDS011;29309;42.682;23.372;2023-04-26T02:53:57;20.80;;;10.80;;
43710;SDS011;29309;42.682;23.372;2023-04-26T02:56:23;18.65;;;11.15;;
43710;SDS011;29309;42.682;23.372;2023-04-26T02:58:49;15.25;;;10.43;;
43710;SDS011;29309;42.682;23.372;2023-04-26T03:01:15;15.65;;;9.32;;
43710;SDS011;29309;42.682;23.372;2023-04-26T03:03:41;13.13;;;8.65;;
43710;SDS011;29309;42.682;23.372;2023-04-26T03:06:07;12.13;;;8.18;;
43710;SDS011;29309;42.682;23.372;2023-04-26T03:08:33;13.88;;;8.68;;
43710;SDS011;29309;42.682;23.372;2023-04-26T03:11:00;14.45;;;8.48;;
43710;SDS011;29309;42.682;23.372;2023-04-26T03:13:26;13.18;;;8.43;;
43710;SDS011;29309;42.682;23.372;2023-04-26T03:15:51;11.82;;;7.97;;
43710;SDS011;29309;42.682;23.372;2023-04-26T03:18:17;16.40;;;8.00;;
43710;SDS011;29309;42.682;23.372;2023-04-26T03:20:44;13.68;;;8.80;;
43710;SDS011;29309;42.682;23.372;2023-04-26T03:23:10;10.88;;;7.68;;
43710;SDS011;29309;42.682;23.372;2023-04-26T03:25:36;10.88;;;7.00;;
43710;SDS011;29309;42.682;23.372;2023-04-26T03:28:01;13.48;;;7.53;;
43710;SDS011;29309;42.682;23.372;2023-04-26T03:30:28;12.25;;;8.10;;
43710;SDS011;29309;42.682;23.372;2023-04-26T03:32:53;12.05;;;8.05;;
43710;SDS011;29309;42.682;23.372;2023-04-26T03:35:19;11.90;;;8.18;;
43710;SDS011;29309;42.682;23.372;2023-04-26T03:37:44;12.30;;;7.47;;
43710;SDS011;29309;42.682;23.372;2023-04-26T03:40:10;14.80;;;7.63;;
43710;SDS011;29309;42.682;23.372;2023-04-26T03:42:35;14.38;;;7.63;;
43710;SDS011;29309;42.682;23.372;2023-04-26T03:45:01;13.18;;;8.00;;
43710;SDS011;29309;42.682;23.372;2023-04-26T03:47:30;16.77;;;8.45;;
43710;SDS011;29309;42.682;23.372;2023-04-26T03:49:56;17.15;;;8.20;;
43710;SDS011;29309;42.682;23.372;2023-04-26T03:52:22;18.58;;;8.30;;
43710;SDS011;29309;42.682;23.372;2023-04-26T03:54:47;11.98;;;7.45;;
43710;SDS011;29309;42.682;23.372;2023-04-26T03:57:13;11.80;;;7.18;;
43710;SDS011;29309;42.682;23.372;2023-04-26T03:59:38;13.15;;;8.02;;
43710;SDS011;29309;42.682;23.372;2023-04-26T04:02:04;12.13;;;7.57;;
43710;SDS011;29309;42.682;23.372;2023-04-26T04:04:30;10.77;;;6.60;;
43710;SDS011;29309;42.682;23.372;2023-04-26T04:06:55;10.88;;;6.18;;
43710;SDS011;29309;42.682;23.372;2023-04-26T04:09:21;9.05;;;6.07;;
43710;SDS011;29309;42.682;23.372;2023-04-26T04:11:46;10.63;;;6.50;;
43710;SDS011;29309;42.682;23.372;2023-04-26T04:14:12;13.57;;;5.32;;
43710;SDS011;29309;42.682;23.372;2023-04-26T04:16:37;9.95;;;5.25;;
43710;SDS011;29309;42.682;23.372;2023-04-26T04:19:03;14.50;;;6.28;;
43710;SDS011;29309;42.682;23.372;2023-04-26T04:21:29;12.30;;;6.07;;
43710;SDS011;29309;42.682;23.372;2023-04-26T04:23:54;8.25;;;5.80;;
43710;SDS011;29309;42.682;23.372;2023-04-26T04:26:19;9.18;;;6.53;;
43710;SDS011;29309;42.682;23.372;2023-04-26T04:28:45;13.85;;;6.15;;
43710;SDS011;29309;42.682;23.372;2023-04-26T04:31:11;10.68;;;5.68;;
43710;SDS011;29309;42.682;23.372;2023-04-26T04:33:37;11.80;;;7.10;;
43710;SDS011;29309;42.682;23.372;2023-04-26T04:36:02;12.15;;;8.18;;
43710;SDS011;29309;42.682;23.372;2023-04-26T04:38:28;14.55;;;7.30;;
43710;SDS011;29309;42.682;23.372;2023-04-26T04:40:54;13.90;;;6.95;;
43710;SDS011;29309;42.682;23.372;2023-04-26T04:43:21;9.23;;;6.32;;
43710;SDS011;29309;42.682;23.372;2023-04-26T04:45:47;14.60;;;6.40;;
43710;SDS011;29309;42.682;23.372;2023-04-26T04:48:16;11.15;;;5.68;;
43710;SDS011;29309;42.682;23.372;2023-04-26T04:50:42;11.77;;;5.85;;
43710;SDS011;29309;42.682;23.372;2023-04-26T04:53:08;10.57;;;5.60;;
43710;SDS011;29309;42.682;23.372;2023-04-26T04:55:34;6.82;;;4.20;;
43710;SDS011;29309;42.682;23.372;2023-04-26T04:58:00;9.40;;;4.63;;
43710;SDS011;29309;42.682;23.372;2023-04-26T05:00:27;8.32;;;4.53;;
43710;SDS011;29309;42.682;23.372;2023-04-26T05:02:53;9.82;;;4.82;;
43710;SDS011;29309;42.682;23.372;2023-04-26T05:05:19;13.13;;;4.60;;
43710;SDS011;29309;42.682;23.372;2023-04-26T05:07:44;11.38;;;4.03;;
43710;SDS011;29309;42.682;23.372;2023-04-26T05:10:10;9.85;;;4.40;;
43710;SDS011;29309;42.682;23.372;2023-04-26T05:12:36;9.40;;;4.20;;
43710;SDS011;29309;42.682;23.372;2023-04-26T05:15:02;6.03;;;4.03;;
43710;SDS011;29309;42.682;23.372;2023-04-26T05:17:28;6.18;;;4.15;;
43710;SDS011;29309;42.682;23.372;2023-04-26T05:19:56;5.90;;;3.80;;
43710;SDS011;29309;42.682;23.372;2023-04-26T05:22:22;6.22;;;3.80;;
43710;SDS011;29309;42.682;23.372;2023-04-26T05:24:47;7.78;;;4.28;;
43710;SDS011;29309;42.682;23.372;2023-04-26T05:27:13;5.45;;;4.05;;
43710;SDS011;29309;42.682;23.372;2023-04-26T05:29:39;6.80;;;4.15;;
43710;SDS011;29309;42.682;23.372;2023-04-26T05:32:05;7.07;;;4.55;;
43710;SDS011;29309;42.682;23.372;2023-04-26T05:34:30;8.05;;;4.40;;
43710;SDS011;29309;42.682;23.372;2023-04-26T05:36:56;5.93;;;4.65;;
43710;SDS011;29309;42.682;23.372;2023-04-26T05:39:22;12.75;;;5.57;;
43710;SDS011;29309;42.682;23.372;2023-04-26T05:41:47;8.57;;;5.45;;
43710;SDS011;29309;42.682;23.372;2023-04-26T05:44:13;9.05;;;4.65;;
43710;SDS011;29309;42.682;23.372;2023-04-26T05:46:39;6.97;;;4.95;;
43710;SDS011;29309;42.682;23.372;2023-04-26T05:49:04;7.90;;;4.95;;
43710;SDS011;29309;42.682;23.372;2023-04-26T05:51:30;6.97;;;4.90;;
43710;SDS011;29309;42.682;23.372;2023-04-26T05:53:56;6.82;;;4.28;;
43710;SDS011;29309;42.682;23.372;2023-04-26T05:56:22;8.35;;;4.90;;
43710;SDS011;29309;42.682;23.372;2023-04-26T05:58:48;6.10;;;4.88;;
43710;SDS011;29309;42.682;23.372;2023-04-26T06:01:14;5.68;;;4.90;;
43710;SDS011;29309;42.682;23.372;2023-04-26T06:03:39;8.98;;;4.97;;
43710;SDS011;29309;42.682;23.372;2023-04-26T06:06:05;26.33;;;19.27;;
43710;SDS011;29309;42.682;23.372;2023-04-26T06:08:31;17.55;;;11.85;;
43710;SDS011;29309;42.682;23.372;2023-04-26T06:10:57;13.30;;;8.60;;
43710;SDS011;29309;42.682;23.372;2023-04-26T06:13:23;13.55;;;7.90;;
43710;SDS011;29309;42.682;23.372;2023-04-26T06:15:48;15.25;;;7.47;;
43710;SDS011;29309;42.682;23.372;2023-04-26T06:18:13;12.98;;;7.80;;
43710;SDS011;29309;42.682;23.372;2023-04-26T06:20:39;9.27;;;7.05;;
43710;SDS011;29309;42.682;23.372;2023-04-26T06:23:05;13.40;;;6.30;;
43710;SDS011;29309;42.682;23.372;2023-04-26T06:25:31;9.82;;;6.97;;
43710;SDS011;29309;42.682;23.372;2023-04-26T06:27:56;11.90;;;7.03;;
43710;SDS011;29309;42.682;23.372;2023-04-26T06:30:22;11.82;;;7.40;;
43710;SDS011;29309;42.682;23.372;2023-04-26T06:32:48;11.27;;;6.95;;
43710;SDS011;29309;42.682;23.372;2023-04-26T06:35:14;10.77;;;6.72;;
43710;SDS011;29309;42.682;23.372;2023-04-26T06:37:39;8.63;;;6.15;;
43710;SDS011;29309;42.682;23.372;2023-04-26T06:40:05;9.15;;;5.53;;
43710;SDS011;29309;42.682;23.372;2023-04-26T06:42:31;9.32;;;5.05;;
43710;SDS011;29309;42.682;23.372;2023-04-26T06:44:57;7.32;;;4.50;;
43710;SDS011;29309;42.682;23.372;2023-04-26T06:47:22;7.22;;;4.00;;
43710;SDS011;29309;42.682;23.372;2023-04-26T06:49:48;11.00;;;4.63;;
43710;SDS011;29309;42.682;23.372;2023-04-26T06:52:16;6.10;;;3.78;;
43710;SDS011;29309;42.682;23.372;2023-04-26T06:54:41;5.35;;;3.78;;
43710;SDS011;29309;42.682;23.372;2023-04-26T06:57:07;4.60;;;3.55;;
43710;SDS011;29309;42.682;23.372;2023-04-26T06:59:32;5.45;;;3.97;;
43710;SDS011;29309;42.682;23.372;2023-04-26T07:01:58;9.43;;;3.63;;
43710;SDS011;29309;42.682;23.372;2023-04-26T07:04:24;5.72;;;4.03;;
43710;SDS011;29309;42.682;23.372;2023-04-26T07:06:51;5.25;;;3.80;;
43710;SDS011;29309;42.682;23.372;2023-04-26T07:09:17;4.20;;;3.78;;
43710;SDS011;29309;42.682;23.372;2023-04-26T07:11:44;7.55;;;4.97;;
43710;SDS011;29309;42.682;23.372;2023-04-26T07:14:11;4.28;;;3.72;;
43710;SDS011;29309;42.682;23.372;2023-04-26T07:16:36;11.35;;;4.03;;
43710;SDS011;29309;42.682;23.372;2023-04-26T07:19:01;4.45;;;3.78;;
43710;SDS011;29309;42.682;23.372;2023-04-26T07:21:27;4.22;;;3.63;;
43710;SDS011;29309;42.682;23.372;2023-04-26T07:23:53;4.53;;;3.60;;
43710;SDS011;29309;42.682;23.372;2023-04-26T07:26:19;8.45;;;4.03;;
43710;SDS011;29309;42.682;23.372;2023-04-26T07:28:45;7.53;;;3.90;;
43710;SDS011;29309;42.682;23.372;2023-04-26T07:31:11;6.18;;;4.13;;
43710;SDS011;29309;42.682;23.372;2023-04-26T07:33:36;6.03;;;4.07;;
43710;SDS011;29309;42.682;23.372;2023-04-26T07:36:02;4.20;;;3.63;;
43710;SDS011;29309;42.682;23.372;2023-04-26T07:38:28;6.68;;;3.78;;
43710;SDS011;29309;42.682;23.372;2023-04-26T07:40:54;4.75;;;4.07;;
43710;SDS011;29309;42.682;23.372;2023-04-26T07:43:19;6.63;;;3.95;;
43710;SDS011;29309;42.682;23.372;2023-04-26T07:45:45;4.15;;;3.33;;
43710;SDS011;29309;42.682;23.372;2023-04-26T07:48:11;4.53;;;4.05;;
43710;SDS011;29309;42.682;23.372;2023-04-26T07:50:37;5.32;;;3.85;;
43710;SDS011;29309;42.682;23.372;2023-04-26T07:53:03;6.65;;;3.50;;
43710;SDS011;29309;42.682;23.372;2023-04-26T07:55:28;10.65;;;5.03;;
43710;SDS011;29309;42.682;23.372;2023-04-26T07:57:54;6.07;;;4.07;;
43710;SDS011;29309;42.682;23.372;2023-04-26T08:00:19;6.00;;;3.47;;
43710;SDS011;29309;42.682;23.372;2023-04-26T08:02:47;3.83;;;3.05;;
43710;SDS011;29309;42.682;23.372;2023-04-26T08:05:13;4.18;;;3.15;;
43710;SDS011;29309;42.682;23.372;2023-04-26T08:07:40;5.10;;;3.13;;
43710;SDS011;29309;42.682;23.372;2023-04-26T08:10:06;5.82;;;3.60;;
43710;SDS011;29309;42.682;23.372;2023-04-26T08:12:32;7.75;;;3.70;;
43710;SDS011;29309;42.682;23.372;2023-04-26T08:14:59;9.48;;;4.28;;
43710;SDS011;29309;42.682;23.372;2023-04-26T08:17:25;8.18;;;4.13;;
43710;SDS011;29309;42.682;23.372;2023-04-26T08:19:51;7.85;;;3.90;;
43710;SDS011;29309;42.682;23.372;2023-04-26T08:22:17;6.20;;;3.70;;
43710;SDS011;29309;42.682;23.372;2023-04-26T08:24:46;8.13;;;3.88;;
43710;SDS011;29309;42.682;23.372;2023-04-26T08:27:14;8.05;;;4.20;;
43710;SDS011;29309;42.682;23.372;2023-04-26T08:29:40;6.93;;;4.22;;
43710;SDS011;29309;42.682;23.372;2023-04-26T08:32:05;5.53;;;4.07;;
43710;SDS011;29309;42.682;23.372;2023-04-26T08:34:31;5.07;;;3.95;;
43710;SDS011;29309;42.682;23.372;2023-04-26T08:36:56;6.50;;;4.30;;
43710;SDS011;29309;42.682;23.372;2023-04-26T08:39:22;10.02;;;4.38;;
43710;SDS011;29309;42.682;23.372;2023-04-26T08:41:54;5.55;;;3.40;;
43710;SDS011;29309;42.682;23.372;2023-04-26T08:44:23;5.82;;;3.60;;
43710;SDS011;29309;42.682;23.372;2023-04-26T08:52:02;3.95;;;2.78;;
43710;SDS011;29309;42.682;23.372;2023-04-26T08:54:28;6.38;;;2.88;;
43710;SDS011;29309;42.682;23.372;2023-04-26T08:56:55;5.43;;;3.25;;
43710;SDS011;29309;42.682;23.372;2023-04-26T08:59:23;5.43;;;3.40;;
43710;SDS011;29309;42.682;23.372;2023-04-26T09:01:49;5.05;;;2.63;;
43710;SDS011;29309;42.682;23.372;2023-04-26T09:04:14;3.20;;;2.70;;
43710;SDS011;29309;42.682;23.372;2023-04-26T09:06:41;5.68;;;3.42;;
43710;SDS011;29309;42.682;23.372;2023-04-26T09:09:08;3.63;;;3.05;;
43710;SDS011;29309;42.682;23.372;2023-04-26T09:11:51;5.82;;;2.72;;
43710;SDS011;29309;42.682;23.372;2023-04-26T09:14:24;3.20;;;2.25;;
43710;SDS011;29309;42.682;23.372;2023-04-26T09:16:50;3.45;;;2.38;;
43710;SDS011;29309;42.682;23.372;2023-04-26T09:19:16;3.78;;;2.47;;
43710;SDS011;29309;42.682;23.372;2023-04-26T09:21:43;3.22;;;2.35;;
43710;SDS011;29309;42.682;23.372;2023-04-26T09:24:10;4.60;;;2.55;;
43710;SDS011;29309;42.682;23.372;2023-04-26T09:26:36;6.47;;;2.50;;
43710;SDS011;29309;42.682;23.372;2023-04-26T09:29:16;4.07;;;2.75;;
43710;SDS011;29309;42.682;23.372;2023-04-26T09:31:46;5.70;;;3.53;;
43710;SDS011;29309;42.682;23.372;2023-04-26T09:34:13;2.92;;;2.17;;
43710;SDS011;29309;42.682;23.372;2023-04-26T09:39:14;3.30;;;2.10;;
43710;SDS011;29309;42.682;23.372;2023-04-26T09:41:53;2.70;;;2.13;;
43710;SDS011;29309;42.682;23.372;2023-04-26T09:44:19;3.30;;;2.35;;
43710;SDS011;29309;42.682;23.372;2023-04-26T09:47:05;3.33;;;2.22;;
43710;SDS011;29309;42.682;23.372;2023-04-26T09:49:47;2.85;;;2.13;;
43710;SDS011;29309;42.682;23.372;2023-04-26T09:52:15;4.40;;;2.38;;
43710;SDS011;29309;42.682;23.372;2023-04-26T09:57:08;4.30;;;2.22;;
43710;SDS011;29309;42.682;23.372;2023-04-26T09:59:41;3.83;;;1.80;;
43710;SDS011;29309;42.682;23.372;2023-04-26T10:02:21;2.15;;;1.70;;
43710;SDS011;29309;42.682;23.372;2023-04-26T10:04:56;4.25;;;1.85;;
43710;SDS011;29309;42.682;23.372;2023-04-26T10:07:24;20.73;;;3.15;;
43710;SDS011;29309;42.682;23.372;2023-04-26T10:09:50;2.65;;;1.63;;
43710;SDS011;29309;42.682;23.372;2023-04-26T10:12:17;2.38;;;1.70;;
43710;SDS011;29309;42.682;23.372;2023-04-26T10:14:43;5.03;;;1.83;;
43710;SDS011;29309;42.682;23.372;2023-04-26T10:17:10;4.95;;;1.63;;
43710;SDS011;29309;42.682;23.372;2023-04-26T10:19:38;1.75;;;1.25;;
43710;SDS011;29309;42.682;23.372;2023-04-26T10:22:24;1.65;;;1.30;;
43710;SDS011;29309;42.682;23.372;2023-04-26T10:24:53;7.18;;;2.13;;
43710;SDS011;29309;42.682;23.372;2023-04-26T10:30:14;2.38;;;1.40;;
43710;SDS011;29309;42.682;23.372;2023-04-26T10:35:21;2.25;;;1.25;;
43710;SDS011;29309;42.682;23.372;2023-04-26T10:40:27;2.33;;;1.20;;
43710;SDS011;29309;42.682;23.372;2023-04-26T10:43:35;1.42;;;1.33;;
43710;SDS011;29309;42.682;23.372;2023-04-26T10:45:47;1.40;;;1.05;;
43710;SDS011;29309;42.682;23.372;2023-04-26T10:53:24;4.15;;;1.23;;
43710;SDS011;29309;42.682;23.372;2023-04-26T10:55:49;2.08;;;1.55;;
43710;SDS011;29309;42.682;23.372;2023-04-26T11:05:56;2.23;;;1.17;;
43710;SDS011;29309;42.682;23.372;2023-04-26T11:13:29;1.90;;;1.20;;
43710;SDS011;29309;42.682;23.372;2023-04-26T11:15:59;4.60;;;1.35;;
43710;SDS011;29309;42.682;23.372;2023-04-26T11:18:30;1.90;;;1.55;;
43710;SDS011;29309;42.682;23.372;2023-04-26T11:20:59;1.95;;;1.17;;
43710;SDS011;29309;42.682;23.372;2023-04-26T11:23:29;5.38;;;1.35;;
43710;SDS011;29309;42.682;23.372;2023-04-26T11:25:58;1.00;;;0.90;;
43710;SDS011;29309;42.682;23.372;2023-04-26T11:28:27;2.47;;;1.15;;
43710;SDS011;29309;42.682;23.372;2023-04-26T11:30:53;3.05;;;1.00;;
43710;SDS011;29309;42.682;23.372;2023-04-26T11:33:19;2.42;;;1.27;;
43710;SDS011;29309;42.682;23.372;2023-04-26T11:35:49;3.47;;;1.23;;
43710;SDS011;29309;42.682;23.372;2023-04-26T11:38:16;6.43;;;1.30;;
43710;SDS011;29309;42.682;23.372;2023-04-26T11:40:51;1.55;;;1.38;;
43710;SDS011;29309;42.682;23.372;2023-04-26T11:43:36;2.67;;;1.17;;
43710;SDS011;29309;42.682;23.372;2023-04-26T11:46:06;3.33;;;1.63;;
43710;SDS011;29309;42.682;23.372;2023-04-26T11:48:34;2.80;;;1.48;;
43710;SDS011;29309;42.682;23.372;2023-04-26T11:51:02;6.45;;;1.50;;
43710;SDS011;29309;42.682;23.372;2023-04-26T11:53:38;1.88;;;1.45;;
43710;SDS011;29309;42.682;23.372;2023-04-26T11:56:12;1.60;;;1.00;;
43710;SDS011;29309;42.682;23.372;2023-04-26T12:01:11;4.60;;;1.30;;
43710;SDS011;29309;42.682;23.372;2023-04-26T12:03:42;2.70;;;1.35;;
43710;SDS011;29309;42.682;23.372;2023-04-26T12:06:08;1.70;;;1.23;;
43710;SDS011;29309;42.682;23.372;2023-04-26T12:08:34;5.18;;;1.65;;
43710;SDS011;29309;42.682;23.372;2023-04-26T12:11:00;6.63;;;1.60;;
43710;SDS011;29309;42.682;23.372;2023-04-26T12:13:29;2.30;;;1.50;;
43710;SDS011;29309;42.682;23.372;2023-04-26T12:15:56;2.25;;;1.55;;
43710;SDS011;29309;42.682;23.372;2023-04-26T12:18:25;5.03;;;1.63;;
43710;SDS011;29309;42.682;23.372;2023-04-26T12:20:56;5.07;;;1.55;;
43710;SDS011;29309;42.682;23.372;2023-04-26T12:23:23;1.85;;;1.27;;
43710;SDS011;29309;42.682;23.372;2023-04-26T12:25:53;6.22;;;1.77;;
43710;SDS011;29309;42.682;23.372;2023-04-26T12:28:20;4.75;;;1.60;;
43710;SDS011;29309;42.682;23.372;2023-04-26T12:30:47;6.85;;;1.52;;
43710;SDS011;29309;42.682;23.372;2023-04-26T12:33:12;4.50;;;1.40;;
43710;SDS011;29309;42.682;23.372;2023-04-26T12:35:38;2.90;;;1.17;;
43710;SDS011;29309;42.682;23.372;2023-04-26T12:38:04;5.72;;;1.33;;
43710;SDS011;29309;42.682;23.372;2023-04-26T12:40:29;4.47;;;1.35;;
43710;SDS011;29309;42.682;23.372;2023-04-26T12:42:56;3.63;;;1.45;;
43710;SDS011;29309;42.682;23.372;2023-04-26T12:45:22;6.03;;;1.30;;
43710;SDS011;29309;42.682;23.372;2023-04-26T12:47:49;4.00;;;1.33;;
43710;SDS011;29309;42.682;23.372;2023-04-26T12:50:15;3.72;;;1.58;;
43710;SDS011;29309;42.682;23.372;2023-04-26T12:52:42;4.32;;;1.10;;
43710;SDS011;29309;42.682;23.372;2023-04-26T12:55:11;1.48;;;1.10;;
43710;SDS011;29309;42.682;23.372;2023-04-26T12:57:39;2.15;;;1.27;;
43710;SDS011;29309;42.682;23.372;2023-04-26T13:00:08;7.95;;;2.92;;
43710;SDS011;29309;42.682;23.372;2023-04-26T13:02:35;3.38;;;1.75;;
43710;SDS011;29309;42.682;23.372;2023-04-26T13:05:01;3.80;;;1.33;;
43710;SDS011;29309;42.682;23.372;2023-04-26T13:07:32;4.05;;;1.52;;
43710;SDS011;29309;42.682;23.372;2023-04-26T13:09:59;5.22;;;1.55;;
43710;SDS011;29309;42.682;23.372;2023-04-26T13:12:25;8.82;;;1.45;;
43710;SDS011;29309;42.682;23.372;2023-04-26T13:14:51;4.25;;;1.58;;
43710;SDS011;29309;42.682;23.372;2023-04-26T13:17:16;2.00;;;1.23;;
43710;SDS011;29309;42.682;23.372;2023-04-26T13:19:43;4.15;;;2.20;;
43710;SDS011;29309;42.682;23.372;2023-04-26T13:22:11;4.43;;;2.03;;
43710;SDS011;29309;42.682;23.372;2023-04-26T13:24:37;3.92;;;1.50;;
43710;SDS011;29309;42.682;23.372;2023-04-26T13:27:03;5.65;;;1.95;;
43710;SDS011;29309;42.682;23.372;2023-04-26T13:29:29;2.58;;;1.40;;
43710;SDS011;29309;42.682;23.372;2023-04-26T13:31:56;5.95;;;1.50;;
43710;SDS011;29309;42.682;23.372;2023-04-26T13:34:23;5.88;;;1.38;;
43710;SDS011;29309;42.682;23.372;2023-04-26T13:36:50;6.45;;;1.70;;
43710;SDS011;29309;42.682;23.372;2023-04-26T13:39:16;2.28;;;1.50;;
43710;SDS011;29309;42.682;23.372;2023-04-26T13:41:42;2.03;;;1.50;;
43710;SDS011;29309;42.682;23.372;2023-04-26T13:44:07;5.45;;;1.70;;
43710;SDS011;29309;42.682;23.372;2023-04-26T13:46:33;4.60;;;1.58;;
43710;SDS011;29309;42.682;23.372;2023-04-26T13:48:58;15.82;;;2.78;;
43710;SDS011;29309;42.682;23.372;2023-04-26T13:51:24;3.38;;;1.75;;
43710;SDS011;29309;42.682;23.372;2023-04-26T13:53:52;7.65;;;2.28;;
43710;SDS011;29309;42.682;23.372;2023-04-26T13:56:19;3.13;;;1.92;;
43710;SDS011;29309;42.682;23.372;2023-04-26T13:58:45;2.97;;;1.92;;
43710;SDS011;29309;42.682;23.372;2023-04-26T14:01:10;7.22;;;2.20;;
43710;SDS011;29309;42.682;23.372;2023-04-26T14:03:36;5.60;;;2.20;;
43710;SDS011;29309;42.682;23.372;2023-04-26T14:06:02;4.03;;;2.00;;
43710;SDS011;29309;42.682;23.372;2023-04-26T14:08:28;10.70;;;2.25;;
43710;SDS011;29309;42.682;23.372;2023-04-26T14:10:54;3.83;;;2.15;;
43710;SDS011;29309;42.682;23.372;2023-04-26T14:13:19;4.38;;;2.40;;
43710;SDS011;29309;42.682;23.372;2023-04-26T14:15:45;4.00;;;1.95;;
43710;SDS011;29309;42.682;23.372;2023-04-26T14:18:11;2.72;;;2.35;;
43710;SDS011;29309;42.682;23.372;2023-04-26T14:20:36;4.88;;;2.63;;
43710;SDS011;29309;42.682;23.372;2023-04-26T14:23:02;5.80;;;2.25;;
43710;SDS011;29309;42.682;23.372;2023-04-26T14:25:27;3.97;;;2.50;;
43710;SDS011;29309;42.682;23.372;2023-04-26T14:27:53;4.30;;;2.03;;
43710;SDS011;29309;42.682;23.372;2023-04-26T14:30:18;5.00;;;2.53;;
43710;SDS011;29309;42.682;23.372;2023-04-26T14:32:44;19.10;;;5.82;;
43710;SDS011;29309;42.682;23.372;2023-04-26T14:35:09;8.43;;;2.75;;
43710;SDS011;29309;42.682;23.372;2023-04-26T14:37:35;5.22;;;2.78;;
43710;SDS011;29309;42.682;23.372;2023-04-26T14:40:01;4.68;;;2.95;;
43710;SDS011;29309;42.682;23.372;2023-04-26T14:42:27;5.25;;;2.80;;
43710;SDS011;29309;42.682;23.372;2023-04-26T14:44:53;9.32;;;3.58;;
43710;SDS011;29309;42.682;23.372;2023-04-26T14:47:18;4.72;;;3.03;;
43710;SDS011;29309;42.682;23.372;2023-04-26T14:49:44;7.85;;;3.13;;
43710;SDS011;29309;42.682;23.372;2023-04-26T14:52:09;10.27;;;2.90;;
43710;SDS011;29309;42.682;23.372;2023-04-26T14:54:38;9.63;;;3.00;;
43710;SDS011;29309;42.682;23.372;2023-04-26T14:57:04;7.53;;;2.97;;
43710;SDS011;29309;42.682;23.372;2023-04-26T14:59:29;5.75;;;3.15;;
43710;SDS011;29309;42.682;23.372;2023-04-26T15:01:55;6.45;;;3.20;;
43710;SDS011;29309;42.682;23.372;2023-04-26T15:04:20;4.55;;;2.90;;